createdAt,value
2018-07-28T00:02:12.198Z,7.90
2018-07-28T00:06:55.863Z,7.47
2018-07-28T00:11:39.862Z,7.60
2018-07-28T00:16:26.896Z,7.80
2018-07-28T00:21:10.408Z,7.67
2018-07-28T00:26:00.380Z,7.70
2018-07-28T00:30:43.983Z,7.73
2018-07-28T00:35:27.761Z,8.47
2018-07-28T00:40:11.233Z,8.37
2018-07-28T00:44:55.037Z,8.43
2018-07-28T00:49:38.644Z,8.40
2018-07-28T00:54:22.438Z,7.87
2018-07-28T00:59:05.832Z,7.60
2018-07-28T01:03:50.457Z,7.90
2018-07-28T01:08:33.939Z,8.53
2018-07-28T01:13:18.584Z,8.47
2018-07-28T01:18:02.174Z,8.67
2018-07-28T01:22:45.671Z,9.67
2018-07-28T01:27:29.124Z,9.10
2018-07-28T01:32:12.605Z,8.80
2018-07-28T01:36:57.350Z,9.87
2018-07-28T01:41:41.912Z,9.27
2018-07-28T01:46:28.511Z,8.70
2018-07-28T01:51:11.973Z,8.90
2018-07-28T01:55:55.678Z,9.40
2018-07-28T02:00:39.313Z,9.10
2018-07-28T02:05:23.110Z,9.40
2018-07-28T02:10:08.074Z,8.73
2018-07-28T02:14:52.711Z,9.57
2018-07-28T02:19:36.317Z,8.30
2018-07-28T02:24:20.197Z,8.60
2018-07-28T02:29:03.742Z,9.37
2018-07-28T02:33:47.027Z,9.40
2018-07-28T02:38:30.611Z,8.90
2018-07-28T02:43:15.260Z,9.10
2018-07-28T02:47:58.675Z,9.63
2018-07-28T02:52:42.378Z,9.33
2018-07-28T02:57:26.029Z,9.27
2018-07-28T03:02:09.591Z,10.07
2018-07-28T03:06:58.240Z,8.73
2018-07-28T03:11:42.285Z,9.20
2018-07-28T03:16:26.009Z,10.27
2018-07-28T03:21:09.447Z,9.87
2018-07-28T03:25:53.496Z,10.90
2018-07-28T03:30:37.001Z,11.30
2018-07-28T03:35:20.477Z,10.50
2018-07-28T03:40:04.593Z,10.13
2018-07-28T03:44:48.209Z,10.90
2018-07-28T03:49:32.439Z,11.30
2018-07-28T03:54:16.225Z,14.53
2018-07-28T03:58:59.851Z,18.63
2018-07-28T04:03:43.491Z,19.10
2018-07-28T04:08:27.162Z,18.20
2018-07-28T04:13:10.755Z,20.03
2018-07-28T04:17:55.446Z,18.97
2018-07-28T04:22:39.216Z,16.53
2018-07-28T04:27:22.894Z,19.27
2018-07-28T04:32:06.432Z,21.00
2018-07-28T04:36:49.960Z,22.13
2018-07-28T04:41:33.445Z,20.67
2018-07-28T04:46:18.231Z,19.37
2018-07-28T04:51:22.381Z,18.30
2018-07-28T04:56:07.955Z,15.33
2018-07-28T05:00:51.464Z,16.50
2018-07-28T05:05:38.356Z,17.17
2018-07-28T05:10:22.044Z,14.13
2018-07-28T05:15:06.722Z,11.70
2018-07-28T05:19:50.352Z,17.83
2018-07-28T05:24:35.489Z,15.90
2018-07-28T05:29:19.126Z,12.90
2018-07-28T05:34:02.963Z,9.60
2018-07-28T05:38:46.444Z,9.33
2018-07-28T05:43:30.153Z,8.23
2018-07-28T05:48:13.836Z,9.30
2018-07-28T05:52:58.490Z,10.17
2018-07-28T05:57:42.310Z,9.47
2018-07-28T06:02:28.239Z,10.33
2018-07-28T06:07:11.611Z,8.50
2018-07-28T06:11:55.228Z,10.23
2018-07-28T06:16:38.703Z,9.90
2018-07-28T06:21:22.127Z,9.43
2018-07-28T06:26:08.942Z,15.37
2018-07-28T06:30:52.408Z,12.40
2018-07-28T06:35:37.411Z,12.23
2018-07-28T06:40:21.344Z,13.77
2018-07-28T06:45:06.660Z,12.07
2018-07-28T06:49:50.138Z,8.90
2018-07-28T06:54:33.711Z,8.23
2018-07-28T06:59:17.376Z,8.27
2018-07-28T07:04:01.009Z,9.77
2018-07-28T07:08:44.608Z,9.20
2018-07-28T07:13:33.079Z,8.47
2018-07-28T07:18:16.720Z,8.70
2018-07-28T07:23:00.339Z,8.77
2018-07-28T07:27:43.976Z,9.90
2018-07-28T07:32:27.413Z,8.93
2018-07-28T07:37:10.841Z,8.03
2018-07-28T07:41:54.533Z,8.30
2018-07-28T07:46:38.030Z,8.07
2018-07-28T07:51:21.980Z,15.53
2018-07-28T07:56:07.030Z,14.17
2018-07-28T08:00:51.612Z,13.93
2018-07-28T08:05:36.556Z,14.40
2018-07-28T08:10:20.125Z,13.63
2018-07-28T08:15:03.885Z,14.23
2018-07-28T08:19:47.562Z,13.13
2018-07-28T08:24:34.331Z,12.30
2018-07-28T08:29:18.336Z,11.53
2018-07-28T08:34:02.003Z,11.93
2018-07-28T08:38:45.544Z,12.03
2018-07-28T08:43:33.530Z,11.07
2018-07-28T08:48:17.157Z,11.67
2018-07-28T08:53:01.229Z,10.63
2018-07-28T08:57:44.901Z,11.47
2018-07-28T09:08:16.973Z,11.43
2018-07-28T09:13:00.890Z,7.90
2018-07-28T09:17:44.578Z,7.50
2018-07-28T09:22:28.314Z,8.40
2018-07-28T09:27:28.513Z,8.43
2018-07-28T09:32:14.693Z,7.73
2018-07-28T09:36:58.678Z,7.53
2018-07-28T09:41:45.760Z,7.30
2018-07-28T09:46:29.545Z,9.07
2018-07-28T09:51:13.185Z,8.60
2018-07-28T09:55:56.987Z,8.43
2018-07-28T10:00:47.234Z,9.90
2018-07-28T10:05:31.105Z,9.80
2018-07-28T10:10:15.028Z,9.57
2018-07-28T10:14:59.664Z,9.53
2018-07-28T10:19:44.200Z,8.67
2018-07-28T10:24:28.264Z,7.33
2018-07-28T10:29:12.353Z,8.07
2018-07-28T10:33:57.383Z,7.97
2018-07-28T10:44:06.749Z,8.07
2018-07-28T10:53:59.372Z,7.43
2018-07-28T10:58:44.616Z,6.03
2018-07-28T11:03:28.131Z,4.90
2018-07-28T11:08:13.215Z,5.97
2018-07-28T11:12:57.992Z,5.00
2018-07-28T11:17:41.640Z,4.80
2018-07-28T11:22:26.358Z,4.03
2018-07-28T11:27:09.808Z,4.03
2018-07-28T11:32:05.022Z,3.50
2018-07-28T11:36:59.251Z,4.03
2018-07-28T11:41:54.463Z,3.30
2018-07-28T11:46:38.997Z,3.17
2018-07-28T11:51:22.777Z,3.20
2018-07-28T11:56:06.336Z,4.80
2018-07-28T12:00:49.787Z,7.40
2018-07-28T12:05:34.413Z,7.77
2018-07-28T12:10:17.918Z,8.20
2018-07-28T12:15:05.853Z,7.00
2018-07-28T12:19:49.452Z,7.43
2018-07-28T12:24:34.179Z,6.87
2018-07-28T12:29:17.774Z,5.90
2018-07-28T12:34:02.273Z,5.70
2018-07-28T12:38:45.824Z,5.57
2018-07-28T12:43:33.005Z,5.83
2018-07-28T12:48:19.464Z,6.47
2018-07-28T12:53:04.753Z,5.77
2018-07-28T12:57:48.213Z,6.37
2018-07-28T13:02:42.417Z,6.25
2018-07-28T13:07:25.885Z,6.20
2018-07-28T13:12:15.478Z,6.73
2018-07-28T13:16:59.086Z,6.80
2018-07-28T13:21:42.588Z,6.35
2018-07-28T13:26:26.158Z,6.03
2018-07-28T13:31:14.544Z,6.25
2018-07-28T13:35:58.084Z,5.67
2018-07-28T13:40:41.714Z,5.37
2018-07-28T13:45:25.454Z,5.22
2018-07-28T13:50:09.196Z,4.90
2018-07-28T13:54:54.733Z,4.97
2018-07-28T13:59:38.357Z,5.30
2018-07-28T14:04:21.934Z,5.03
2018-07-28T14:09:09.747Z,5.20
2018-07-28T14:13:54.617Z,5.43
2018-07-28T14:18:38.159Z,6.70
2018-07-28T14:23:26.920Z,6.20
2018-07-28T14:28:16.686Z,6.03
2018-07-28T14:33:00.403Z,6.37
2018-07-28T14:37:56.693Z,6.10
2018-07-28T14:42:43.769Z,6.17
2018-07-28T14:47:27.311Z,6.67
2018-07-28T14:52:10.942Z,6.87
2018-07-28T14:56:54.543Z,6.00
2018-07-28T15:01:38.226Z,7.00
2018-07-28T15:06:21.796Z,6.70
2018-07-28T15:11:05.484Z,5.87
2018-07-28T15:15:49.021Z,6.97
2018-07-28T15:20:32.643Z,7.03
2018-07-28T15:25:16.040Z,7.07
2018-07-28T15:30:00.083Z,7.07
2018-07-28T15:34:43.642Z,7.10
2018-07-28T15:39:27.163Z,7.80
2018-07-28T15:44:10.678Z,7.10
2018-07-28T15:48:54.182Z,7.63
2018-07-28T15:53:41.602Z,7.60
2018-07-28T15:58:25.463Z,8.13
2018-07-28T16:03:13.015Z,8.40
2018-07-28T16:09:25.831Z,8.07
2018-07-28T16:14:10.571Z,8.70
2018-07-28T16:18:58.968Z,8.10
2018-07-28T16:23:46.538Z,7.93
2018-07-28T16:28:30.146Z,8.73
2018-07-28T16:33:14.850Z,8.80
2018-07-28T16:37:59.121Z,7.77
2018-07-28T16:42:43.500Z,8.40
2018-07-28T16:47:28.359Z,7.90
2018-07-28T16:52:13.074Z,8.23
2018-07-28T16:56:57.518Z,8.17
2018-07-28T17:01:47.869Z,8.70
2018-07-28T17:06:31.502Z,7.67
2018-07-28T17:11:15.371Z,8.10
2018-07-28T17:15:59.980Z,10.37
2018-07-28T17:20:44.860Z,9.90
2018-07-28T17:25:28.429Z,8.37
2018-07-28T17:30:12.050Z,9.40
2018-07-28T17:34:57.844Z,7.97
2018-07-28T17:39:41.301Z,7.97
2018-07-28T17:44:24.965Z,8.60
2018-07-28T17:49:08.492Z,7.70
2018-07-28T17:53:52.352Z,6.60
2018-07-28T17:58:42.215Z,6.73
2018-07-28T18:03:25.998Z,6.03
2018-07-28T18:08:09.509Z,6.77
2018-07-28T18:12:55.006Z,6.43
2018-07-28T18:17:38.703Z,6.20
2018-07-28T18:22:22.486Z,6.47
2018-07-28T18:27:06.066Z,7.07
2018-07-28T18:31:49.613Z,6.53
2018-07-28T18:36:34.103Z,7.73
2018-07-28T18:41:21.088Z,7.73
2018-07-28T18:46:05.296Z,8.00
2018-07-28T18:50:48.885Z,6.90
2018-07-28T18:55:33.253Z,8.07
2018-07-28T19:00:17.938Z,7.23
2018-07-28T19:05:01.622Z,7.60
2018-07-28T19:09:53.648Z,7.87
2018-07-28T19:14:40.040Z,7.80
2018-07-28T19:19:23.589Z,7.30
2018-07-28T19:24:08.291Z,7.97
2018-07-28T19:28:57.256Z,7.33
2018-07-28T19:33:40.946Z,7.80
2018-07-28T19:38:24.518Z,7.67
2018-07-28T19:49:04.727Z,8.13
2018-07-28T19:53:52.391Z,7.30
2018-07-28T19:58:36.019Z,8.50
2018-07-28T20:03:22.747Z,8.40
2018-07-28T20:08:06.415Z,7.97
2018-07-28T20:12:51.115Z,8.37
2018-07-28T20:17:34.597Z,7.47
2018-07-28T20:22:18.282Z,7.77
2018-07-28T20:27:01.813Z,7.77
2018-07-28T20:31:45.401Z,7.77
2018-07-28T20:36:29.022Z,8.93
2018-07-28T20:41:12.618Z,8.10
2018-07-28T20:45:56.102Z,8.53
2018-07-28T20:50:39.662Z,8.10
2018-07-28T20:55:23.130Z,8.87
2018-07-28T21:00:07.562Z,8.80
2018-07-28T21:04:51.060Z,8.33
2018-07-28T21:09:34.630Z,9.10
2018-07-28T21:14:19.243Z,9.03
2018-07-28T21:19:02.646Z,8.87
2018-07-28T21:23:46.360Z,9.27
2018-07-28T21:28:29.682Z,9.47
2018-07-28T21:33:13.348Z,8.87
2018-07-28T21:37:56.935Z,10.23
2018-07-28T21:42:41.495Z,9.73
2018-07-28T21:47:25.095Z,10.07
2018-07-28T21:52:08.587Z,10.13
2018-07-28T21:56:52.821Z,9.33
2018-07-28T22:01:36.713Z,10.03
